Time;durP1;ratioP1;P1;durP2;ratioP2;P2;SDS_P1;SDS_P2;PMS_P1;PMS_P2;Temp;Humidity;BMP_temperature;BMP_pressure;BME280_temperature;BME280_humidity;BME280_pressure;Samples;Min_cycle;Max_cycle;Signal;HPM_P1;HPM_P2
2021/10/29 00:02:14;;;;;;;20.55;10.85;;;;;;;15.11;100.00;100824.22;4934725;29;20286;-60
2021/10/29 00:04:40;;;;;;;22.20;10.27;;;;;;;14.94;100.00;100826.69;4934674;29;20051;-59
2021/10/29 00:07:07;;;;;;;21.87;11.10;;;;;;;15.00;100.00;100830.34;4934738;29;20460;-61
2021/10/29 00:09:33;;;;;;;18.43;10.67;;;;;;;15.02;100.00;100831.78;4902100;29;20057;-60
2021/10/29 00:11:59;;;;;;;20.92;11.15;;;;;;;14.86;100.00;100826.97;4933604;29;20270;-60
2021/10/29 00:14:25;;;;;;;18.97;10.93;;;;;;;14.87;100.00;100823.25;4917718;29;20545;-59
2021/10/29 00:16:51;;;;;;;19.67;12.07;;;;;;;14.92;100.00;100826.06;4917962;29;20353;-60
2021/10/29 00:19:18;;;;;;;24.55;11.25;;;;;;;14.62;100.00;100829.47;4934818;29;20056;-60
2021/10/29 00:21:44;;;;;;;19.88;10.90;;;;;;;14.77;100.00;100824.59;4934657;29;20549;-60
2021/10/29 00:24:10;;;;;;;20.98;11.73;;;;;;;14.65;100.00;100818.28;4918055;29;20139;-60
2021/10/29 00:26:35;;;;;;;19.65;11.05;;;;;;;14.58;100.00;100821.03;4934622;29;20044;-60
2021/10/29 00:29:01;;;;;;;19.07;10.83;;;;;;;14.45;100.00;100813.91;4891993;29;1264532;-59
2021/10/29 00:31:26;;;;;;;25.50;11.80;;;;;;;14.99;100.00;100816.06;4935521;29;20811;-60
2021/10/29 00:33:52;;;;;;;26.73;12.63;;;;;;;14.72;100.00;100816.34;4935532;29;20486;-59
2021/10/29 00:36:17;;;;;;;19.43;10.80;;;;;;;14.57;100.00;100814.00;4935172;29;20477;-58
2021/10/29 00:38:43;;;;;;;24.57;11.13;;;;;;;14.59;100.00;100809.22;4935452;29;20067;-60
2021/10/29 00:41:08;;;;;;;21.37;11.30;;;;;;;14.38;100.00;100797.00;4935690;29;20166;-61
2021/10/29 00:43:34;;;;;;;24.23;11.80;;;;;;;14.58;100.00;100806.75;4918160;29;20950;-60
2021/10/29 00:45:59;;;;;;;25.10;11.13;;;;;;;14.59;100.00;100805.72;4918614;29;20312;-61
2021/10/29 00:48:25;;;;;;;23.03;11.53;;;;;;;14.49;100.00;100801.66;4935128;29;20075;-60
2021/10/29 00:50:51;;;;;;;25.25;12.05;;;;;;;14.55;100.00;100807.22;4935338;29;20474;-60
2021/10/29 00:53:17;;;;;;;21.80;10.88;;;;;;;14.52;100.00;100808.47;4918477;29;20051;-59
2021/10/29 00:55:42;;;;;;;23.27;10.50;;;;;;;14.70;100.00;100802.25;4934018;29;20091;-60
2021/10/29 00:58:08;;;;;;;26.33;11.38;;;;;;;14.38;100.00;100798.88;4935287;29;20050;-59
2021/10/29 01:00:33;;;;;;;19.48;11.07;;;;;;;14.61;100.00;100793.66;4918040;29;20118;-59
2021/10/29 01:02:59;;;;;;;21.43;10.93;;;;;;;14.72;100.00;100796.69;4918354;29;20039;-60
2021/10/29 01:05:25;;;;;;;21.40;10.23;;;;;;;14.69;100.00;100806.00;4933912;29;20032;-60
2021/10/29 01:07:50;;;;;;;18.95;11.18;;;;;;;14.67;100.00;100786.56;4918254;29;20040;-60
2021/10/29 01:10:16;;;;;;;16.43;9.33;;;;;;;14.67;100.00;100800.03;4933950;29;20072;-60
2021/10/29 01:12:42;;;;;;;20.48;10.73;;;;;;;14.73;100.00;100801.03;4934908;29;20070;-60
2021/10/29 01:15:09;;;;;;;23.13;10.43;;;;;;;14.61;100.00;100798.25;4918271;29;20044;-60
2021/10/29 01:17:35;;;;;;;21.70;9.85;;;;;;;14.77;100.00;100797.69;4934862;29;20028;-60
2021/10/29 01:20:01;;;;;;;;;;;;;;;14.89;100.00;100803.13;4935460;29;20048;-60
2021/10/29 01:22:27;;;;;;;16.67;9.47;;;;;;;14.94;100.00;100788.16;4918956;29;19919;-60
2021/10/29 01:24:53;;;;;;;15.60;9.48;;;;;;;15.00;100.00;100793.47;4938445;29;20122;-61
2021/10/29 01:27:19;;;;;;;20.23;10.07;;;;;;;14.93;100.00;100790.03;4938442;29;20036;-60
2021/10/29 01:29:46;;;;;;;20.17;9.80;;;;;;;14.84;100.00;100775.25;4938522;29;20470;-59
2021/10/29 01:32:12;;;;;;;19.53;9.33;;;;;;;14.92;100.00;100777.59;4938571;29;20398;-61
2021/10/29 01:34:39;;;;;;;19.03;9.87;;;;;;;15.09;100.00;100787.78;4936781;29;20266;-60
2021/10/29 01:37:07;;;;;;;16.43;8.73;;;;;;;15.05;100.00;100780.16;4938536;29;20266;-61
2021/10/29 01:39:33;;;;;;;17.07;8.90;;;;;;;14.99;100.00;100786.44;4937458;29;20328;-59
2021/10/29 01:41:58;;;;;;;15.45;8.77;;;;;;;15.16;100.00;100767.78;4938535;29;20285;-60
2021/10/29 01:44:24;;;;;;;16.77;9.13;;;;;;;15.01;100.00;100767.34;4937948;29;20052;-59
2021/10/29 01:46:49;;;;;;;16.07;8.13;;;;;;;15.03;100.00;100762.56;4920805;29;20106;-59
2021/10/29 01:49:16;;;;;;;19.90;9.00;;;;;;;15.16;100.00;100781.25;4938513;29;20055;-60
2021/10/29 01:51:42;;;;;;;19.17;8.70;;;;;;;15.00;100.00;100771.94;4937809;29;20135;-59
2021/10/29 01:54:08;;;;;;;18.42;10.10;;;;;;;14.80;100.00;100758.69;4921100;29;20714;-60
2021/10/29 01:56:33;;;;;;;19.23;9.98;;;;;;;14.91;100.00;100757.97;4937826;29;20103;-59
2021/10/29 01:58:59;;;;;;;19.83;9.87;;;;;;;14.89;100.00;100767.28;4920890;29;20502;-60
2021/10/29 02:01:25;;;;;;;19.27;9.88;;;;;;;14.94;100.00;100759.34;4937930;29;20286;-60
2021/10/29 02:03:51;;;;;;;18.63;9.80;;;;;;;15.17;100.00;100757.81;4937614;29;20044;-60
2021/10/29 02:06:18;;;;;;;16.27;9.10;;;;;;;15.03;100.00;100744.56;4937757;29;20032;-59
2021/10/29 02:08:44;;;;;;;20.13;9.32;;;;;;;14.86;100.00;100748.91;4937687;29;20131;-59
2021/10/29 02:11:10;;;;;;;17.13;9.27;;;;;;;14.77;100.00;100749.22;4920973;29;20036;-60
2021/10/29 02:13:36;;;;;;;15.02;9.00;;;;;;;14.82;100.00;100740.44;4937119;29;20038;-59
2021/10/29 02:16:01;;;;;;;19.20;8.25;;;;;;;15.04;100.00;100754.28;4937785;29;20493;-60
2021/10/29 02:18:27;;;;;;;16.95;9.00;;;;;;;15.05;100.00;100752.38;4937321;29;20048;-60
2021/10/29 02:20:52;;;;;;;16.53;10.10;;;;;;;14.81;100.00;100735.31;4937686;29;20067;-60
2021/10/29 02:23:18;;;;;;;19.52;10.98;;;;;;;14.77;100.00;100733.06;4937219;29;20497;-60
2021/10/29 02:25:44;;;;;;;26.77;9.97;;;;;;;14.81;100.00;100733.44;4937605;29;20131;-60
2021/10/29 02:28:14;;;;;;;26.02;10.07;;;;;;;14.82;100.00;100734.25;4937184;29;20326;-59
2021/10/29 02:30:40;;;;;;;19.00;10.03;;;;;;;15.02;100.00;100729.44;4937590;29;20139;-59
2021/10/29 02:33:06;;;;;;;19.88;9.57;;;;;;;14.86;100.00;100725.47;4919897;29;20282;-60
2021/10/29 02:35:32;;;;;;;18.70;10.47;;;;;;;14.61;100.00;100721.00;4936646;29;20043;-61
2021/10/29 02:37:57;;;;;;;19.00;10.40;;;;;;;14.82;100.00;100727.00;4936769;29;20759;-60
2021/10/29 02:40:23;;;;;;;17.77;9.38;;;;;;;14.74;100.00;100719.22;4937673;29;20062;-60
2021/10/29 02:42:48;;;;;;;16.27;9.63;;;;;;;14.74;100.00;100720.03;4937466;29;20047;-60
2021/10/29 02:45:14;;;;;;;20.50;9.60;;;;;;;14.98;100.00;100722.03;4920457;29;20079;-60
2021/10/29 02:47:39;;;;;;;17.27;9.20;;;;;;;14.91;100.00;100727.50;4936684;29;20118;-59
2021/10/29 02:50:06;;;;;;;15.82;8.95;;;;;;;14.73;100.00;100721.09;4937146;29;20051;-59
2021/10/29 02:52:31;;;;;;;17.92;9.25;;;;;;;14.90;100.00;100713.22;4937128;29;20048;-59
2021/10/29 02:54:56;;;;;;;17.70;9.30;;;;;;;14.77;100.00;100716.94;4936854;29;20118;-58
2021/10/29 02:57:22;;;;;;;19.50;8.87;;;;;;;15.04;100.00;100711.19;4937011;29;20043;-59
2021/10/29 02:59:47;;;;;;;16.30;8.53;;;;;;;14.95;100.00;100701.75;4936419;29;20074;-60
2021/10/29 03:02:13;;;;;;;16.53;8.37;;;;;;;14.83;100.00;100708.97;4936788;29;20158;-61
2021/10/29 03:04:38;;;;;;;15.97;8.87;;;;;;;14.73;100.00;100704.94;4919830;29;20517;-60
2021/10/29 03:07:04;;;;;;;17.10;9.23;;;;;;;14.61;100.00;100706.72;4937424;29;20364;-60
2021/10/29 03:09:29;;;;;;;18.60;9.47;;;;;;;14.88;100.00;100693.81;4919915;29;20474;-60
2021/10/29 03:11:55;;;;;;;20.77;9.32;;;;;;;14.86;100.00;100703.13;4936189;29;20197;-59
2021/10/29 03:14:21;;;;;;;17.83;9.83;;;;;;;14.84;100.00;100699.84;4935552;29;20394;-59
2021/10/29 03:16:46;;;;;;;15.57;8.65;;;;;;;14.79;100.00;100699.72;4919283;29;20290;-60
2021/10/29 03:19:12;;;;;;;19.00;10.10;;;;;;;14.71;100.00;100696.28;4935548;29;20040;-59
2021/10/29 03:21:38;;;;;;;18.23;9.27;;;;;;;14.69;100.00;100703.72;4935288;29;20289;-60
2021/10/29 03:24:04;;;;;;;18.50;9.07;;;;;;;14.79;100.00;100699.72;4936484;29;20548;-59
2021/10/29 03:26:30;;;;;;;17.20;9.48;;;;;;;14.65;100.00;100699.00;4936969;29;20042;-59
2021/10/29 03:28:55;;;;;;;16.30;9.57;;;;;;;14.74;100.00;100698.50;4936421;29;20405;-59
2021/10/29 03:31:21;;;;;;;17.27;10.07;;;;;;;14.55;100.00;100696.88;4936665;29;20466;-59
2021/10/29 03:33:46;;;;;;;18.63;10.10;;;;;;;14.84;100.00;100694.47;4935766;29;20549;-59
2021/10/29 03:36:12;;;;;;;18.27;9.57;;;;;;;14.81;100.00;100689.53;4936110;29;20130;-59
2021/10/29 03:38:44;;;;;;;19.23;9.75;;;;;;;14.78;100.00;100696.19;4936159;29;20032;-59
2021/10/29 03:41:11;;;;;;;16.80;9.30;;;;;;;14.66;100.00;100693.41;4936063;29;20040;-59
2021/10/29 03:46:12;;;;;;;16.27;9.40;;;;;;;14.68;100.00;100691.31;4935753;29;20047;-58
2021/10/29 03:51:09;;;;;;;16.90;9.03;;;;;;;14.85;100.00;100686.16;4935996;29;20795;-59
2021/10/29 03:53:41;;;;;;;18.02;9.35;;;;;;;14.61;100.00;100686.00;4935859;29;20126;-60
2021/10/29 03:56:12;;;;;;;18.20;10.20;;;;;;;14.57;100.00;100684.03;4935490;29;20051;-60
2021/10/29 03:58:37;;;;;;;17.63;9.53;;;;;;;15.08;100.00;100689.97;4935569;29;20039;-60
2021/10/29 04:01:03;;;;;;;16.13;9.47;;;;;;;14.60;100.00;100684.38;4935466;29;20265;-60
2021/10/29 04:03:28;;;;;;;19.47;10.77;;;;;;;14.64;100.00;100687.44;4935623;29;20048;-60
2021/10/29 04:05:54;;;;;;;17.03;9.17;;;;;;;14.54;100.00;100679.09;4934080;29;20094;-58
2021/10/29 04:08:19;;;;;;;19.37;9.97;;;;;;;14.67;100.00;100683.50;4916744;29;20056;-60
2021/10/29 04:10:45;;;;;;;15.85;9.80;;;;;;;14.58;100.00;100680.28;4916884;29;20346;-60
2021/10/29 04:13:12;;;;;;;20.30;10.50;;;;;;;14.43;100.00;100675.28;4916627;29;20074;-60
2021/10/29 04:15:40;;;;;;;19.58;10.23;;;;;;;14.59;100.00;100671.16;4915346;29;20367;-60
2021/10/29 04:18:08;;;;;;;23.00;10.30;;;;;;;14.32;100.00;100668.78;4916291;29;20044;-59
2021/10/29 04:20:34;;;;;;;18.50;9.90;;;;;;;14.57;100.00;100679.44;4916465;29;20401;-60
2021/10/29 04:22:59;;;;;;;16.45;9.65;;;;;;;14.37;100.00;100670.78;4916204;29;20354;-59
2021/10/29 04:25:25;;;;;;;16.30;9.13;;;;;;;14.57;100.00;100663.28;4915402;29;20091;-60
2021/10/29 04:28:04;;;;;;;16.20;9.47;;;;;;;14.46;100.00;100662.19;4916266;29;20361;-59
2021/10/29 04:30:29;;;;;;;18.55;9.35;;;;;;;14.33;100.00;100657.78;4916183;29;20055;-60
2021/10/29 04:32:57;;;;;;;23.30;13.47;;;;;;;14.43;100.00;100657.25;4916234;29;20153;-59
2021/10/29 04:35:23;;;;;;;20.60;10.60;;;;;;;14.48;100.00;100659.28;4916281;29;20279;-60
2021/10/29 04:37:49;;;;;;;20.27;10.20;;;;;;;14.46;100.00;100650.63;4916781;29;20047;-60
2021/10/29 04:40:14;;;;;;;23.27;10.25;;;;;;;14.62;100.00;100646.47;4915152;29;20048;-60
2021/10/29 04:42:41;;;;;;;17.70;9.50;;;;;;;14.91;100.00;100642.19;4916356;29;20047;-59
2021/10/29 04:45:07;;;;;;;;;;;;;;;14.84;100.00;100648.72;4916251;29;20040;-60
2021/10/29 04:47:33;;;;;;;17.03;9.23;;;;;;;14.65;100.00;100647.88;4916325;29;19922;-61
2021/10/29 04:49:58;;;;;;;18.50;10.77;;;;;;;14.44;100.00;100647.34;4916707;29;20040;-66
2021/10/29 04:52:24;;;;;;;21.93;10.00;;;;;;;14.38;100.00;100643.66;4916346;29;20493;-60
2021/10/29 04:54:50;;;;;;;14.75;9.15;;;;;;;14.57;100.00;100647.16;4916295;29;20048;-59
2021/10/29 04:57:15;;;;;;;19.15;9.43;;;;;;;14.52;100.00;100632.72;4917511;29;20402;-60
2021/10/29 04:59:41;;;;;;;17.75;10.07;;;;;;;14.68;100.00;100645.56;4921692;29;20055;-59
2021/10/29 05:02:06;;;;;;;19.47;9.93;;;;;;;14.41;100.00;100645.91;4919898;29;20036;-59
2021/10/29 05:04:32;;;;;;;18.37;9.47;;;;;;;14.45;100.00;100646.28;4919765;29;20036;-59
2021/10/29 05:06:57;;;;;;;19.07;8.57;;;;;;;14.38;100.00;100632.91;4918667;29;20032;-57
2021/10/29 05:09:23;;;;;;;14.07;8.80;;;;;;;14.77;100.00;100638.84;4919691;29;20378;-60
2021/10/29 05:11:48;;;;;;;20.23;9.93;;;;;;;14.58;100.00;100631.84;4918637;29;20127;-59
2021/10/29 05:14:14;;;;;;;17.60;9.20;;;;;;;14.36;100.00;100635.00;4919420;29;20051;-59
2021/10/29 05:16:39;;;;;;;19.27;9.60;;;;;;;14.86;100.00;100628.56;4918668;29;20067;-59
2021/10/29 05:19:05;;;;;;;17.45;8.90;;;;;;;14.28;100.00;100628.06;4919494;29;20036;-58
2021/10/29 05:21:31;;;;;;;20.30;8.77;;;;;;;14.65;100.00;100627.19;4919718;29;20048;-60
2021/10/29 05:23:57;;;;;;;16.98;9.40;;;;;;;14.60;100.00;100616.28;4919379;29;20072;-60
2021/10/29 05:26:22;;;;;;;20.50;9.77;;;;;;;14.44;100.00;100615.84;4919975;29;20233;-60
2021/10/29 05:28:48;;;;;;;19.10;10.00;;;;;;;14.39;100.00;100610.34;4920172;29;20056;-60
2021/10/29 05:31:14;;;;;;;16.80;9.50;;;;;;;14.69;100.00;100617.59;4919535;29;20275;-60
2021/10/29 05:33:40;;;;;;;17.77;9.25;;;;;;;14.59;100.00;100611.94;4919272;29;20081;-61
2021/10/29 05:36:05;;;;;;;19.90;9.63;;;;;;;14.56;100.00;100612.41;4917603;29;20044;-58
2021/10/29 05:38:31;;;;;;;18.83;9.33;;;;;;;14.55;100.00;100608.88;4917776;29;20394;-59
2021/10/29 05:40:58;;;;;;;17.00;9.15;;;;;;;14.53;100.00;100610.97;4919125;29;20490;-60
2021/10/29 05:43:24;;;;;;;21.15;9.60;;;;;;;14.45;100.00;100616.69;4919091;29;20106;-59
2021/10/29 05:45:50;;;;;;;16.05;9.10;;;;;;;14.38;100.00;100608.69;4918892;29;20120;-59
2021/10/29 05:48:15;;;;;;;20.70;8.80;;;;;;;14.51;100.00;100607.69;4902084;29;20119;-59
2021/10/29 05:50:48;;;;;;;17.43;8.40;;;;;;;14.38;100.00;100602.47;4919180;29;20192;-60
2021/10/29 05:53:22;;;;;;;20.63;9.32;;;;;;;14.39;100.00;100604.97;4918898;29;20056;-59
2021/10/29 05:55:49;;;;;;;16.95;8.30;;;;;;;14.65;100.00;100602.13;4919228;29;20040;-59
2021/10/29 05:58:14;;;;;;;20.85;9.15;;;;;;;14.86;100.00;100612.41;4918448;29;20067;-58
2021/10/29 06:00:40;;;;;;;18.27;9.40;;;;;;;14.51;100.00;100604.19;4918662;29;20068;-60
2021/10/29 06:03:09;;;;;;;18.30;8.90;;;;;;;14.53;100.00;100605.59;4929875;29;20472;-60
2021/10/29 06:05:34;;;;;;;17.70;9.27;;;;;;;14.91;100.00;100603.66;4942770;29;20454;-59
2021/10/29 06:08:00;;;;;;;18.00;10.13;;;;;;;14.44;100.00;100599.72;4928694;28;20039;-58
2021/10/29 06:10:25;;;;;;;23.37;8.70;;;;;;;14.53;100.00;100608.28;4945205;29;20140;-59
2021/10/29 06:12:51;;;;;;;14.70;8.80;;;;;;;14.57;100.00;100603.28;4945265;29;20086;-60
2021/10/29 06:15:18;;;;;;;18.73;9.35;;;;;;;14.65;100.00;100602.13;4926099;29;20051;-60
2021/10/29 06:17:44;;;;;;;18.27;9.05;;;;;;;14.83;100.00;100602.09;4929591;29;20046;-58
2021/10/29 06:20:11;;;;;;;16.42;8.25;;;;;;;14.79;100.00;100605.50;4947179;29;20039;-59
2021/10/29 06:22:38;;;;;;;15.63;8.90;;;;;;;15.01;100.00;100595.00;4946051;29;20489;-59
2021/10/29 06:25:20;;;;;;;16.83;8.65;;;;;;;14.70;100.00;100608.47;4944774;29;20305;-60
2021/10/29 06:30:36;;;;;;;16.00;8.38;;;;;;;14.63;100.00;100607.75;4920013;29;20040;-60
2021/10/29 06:33:02;;;;;;;16.15;8.93;;;;;;;14.73;100.00;100602.66;4937513;29;20168;-60
2021/10/29 06:35:29;;;;;;;15.75;8.93;;;;;;;14.65;100.00;100596.75;4929925;29;20123;-60
2021/10/29 06:37:56;;;;;;;16.70;8.50;;;;;;;15.11;100.00;100603.38;4902025;29;20048;-60
2021/10/29 06:40:23;;;;;;;17.93;8.70;;;;;;;14.85;100.00;100604.56;4936372;29;20261;-60
2021/10/29 06:42:52;;;;;;;17.67;8.40;;;;;;;14.97;100.00;100607.31;4936828;29;20294;-60
2021/10/29 07:42:06;;;;;;;19.30;8.57;;;;;;;15.75;100.00;100591.09;4955545;29;20722;-60
2021/10/29 07:44:34;;;;;;;12.43;8.17;;;;;;;15.47;100.00;100589.94;4954615;28;20623;-60
2021/10/29 07:46:59;;;;;;;14.17;8.97;;;;;;;15.72;100.00;100586.16;4955419;29;20277;-60
2021/10/29 07:49:28;;;;;;;18.03;9.93;;;;;;;15.72;100.00;100570.78;4954606;29;20356;-58
2021/10/29 07:51:56;;;;;;;15.77;9.20;;;;;;;15.75;100.00;100581.09;4955079;28;20058;-61
2021/10/29 07:54:22;;;;;;;16.43;8.97;;;;;;;15.97;100.00;100594.00;4954734;29;20300;-54
2021/10/29 07:56:48;;;;;;;;;;;;;;;16.25;100.00;100592.41;4938497;29;20292;-59
2021/10/29 07:59:14;;;;;;;18.10;8.50;;;;;;;16.22;100.00;100576.69;4955193;29;19993;-60
2021/10/29 08:01:40;;;;;;;17.45;8.35;;;;;;;16.11;100.00;100586.47;4954629;28;20291;-61
2021/10/29 08:04:06;;;;;;;17.10;9.00;;;;;;;16.52;100.00;100591.84;4954592;28;20090;-61
2021/10/29 08:06:32;;;;;;;17.33;7.97;;;;;;;16.70;100.00;100588.13;4955133;29;20043;-58
2021/10/29 08:09:00;;;;;;;14.10;8.13;;;;;;;16.59;100.00;100586.28;4942252;28;20043;-61
2021/10/29 08:11:26;;;;;;;13.80;7.67;;;;;;;16.77;100.00;100591.47;4935306;29;20515;-59
2021/10/29 08:13:52;;;;;;;14.07;7.57;;;;;;;16.69;100.00;100591.06;4935650;29;20313;-60
2021/10/29 08:16:17;;;;;;;16.60;7.37;;;;;;;17.00;100.00;100594.34;4935611;29;20290;-60
2021/10/29 08:18:45;;;;;;;16.27;7.87;;;;;;;17.29;100.00;100586.94;4935107;29;20108;-60
2021/10/29 08:21:11;;;;;;;13.00;7.93;;;;;;;17.83;100.00;100587.44;4935560;29;20032;-60
2021/10/29 08:23:39;;;;;;;13.37;7.87;;;;;;;17.61;100.00;100577.41;4918635;29;20317;-60
2021/10/29 08:26:04;;;;;;;15.13;7.60;;;;;;;18.05;100.00;100584.78;4935718;29;20329;-60
2021/10/29 08:28:30;;;;;;;12.85;8.18;;;;;;;17.54;100.00;100572.19;4935551;29;20286;-60
2021/10/29 08:30:56;;;;;;;17.30;8.23;;;;;;;18.20;100.00;100579.53;4935469;29;20043;-60
2021/10/29 08:33:21;;;;;;;15.75;7.88;;;;;;;18.65;100.00;100573.25;4937769;29;20089;-60
2021/10/29 08:35:48;;;;;;;13.75;7.25;;;;;;;19.26;100.00;100570.25;4939254;29;20482;-60
2021/10/29 08:38:16;;;;;;;17.83;7.33;;;;;;;19.13;100.00;100559.84;4939374;29;20126;-60
2021/10/29 08:40:42;;;;;;;14.03;6.87;;;;;;;19.59;94.36;100560.16;4938518;29;20296;-60
2021/10/29 08:43:07;;;;;;;14.65;7.50;;;;;;;19.62;95.15;100559.66;4922290;29;20278;-60
2021/10/29 08:45:33;;;;;;;12.15;7.07;;;;;;;19.76;90.97;100553.72;4922192;29;20520;-60
2021/10/29 08:48:00;;;;;;;12.02;6.90;;;;;;;20.47;84.37;100565.94;4923022;29;20035;-60
2021/10/29 08:50:26;;;;;;;10.33;6.60;;;;;;;19.94;86.37;100557.09;4942351;29;20047;-60
2021/10/29 08:52:51;;;;;;;10.70;6.60;;;;;;;19.81;88.15;100551.03;4940937;29;20281;-60
2021/10/29 08:55:23;;;;;;;17.98;6.68;;;;;;;20.76;79.36;100538.28;4940046;29;20405;-59
2021/10/29 08:57:50;;;;;;;11.73;6.47;;;;;;;20.18;83.02;100541.16;4939451;29;20035;-60
2021/10/29 09:00:23;;;;;;;10.70;6.32;;;;;;;20.54;80.98;100540.44;4939955;29;20032;-59
2021/10/29 09:03:07;;;;;;;11.53;6.33;;;;;;;20.54;78.70;100526.84;4939056;29;20171;-59
2021/10/29 09:05:51;;;;;;;10.47;6.33;;;;;;;20.26;80.22;100528.94;4923518;29;20059;-57
2021/10/29 09:32:34;;;;;;;13.07;6.03;;;;;;;22.11;63.27;100509.94;4937687;29;20044;-60
2021/10/29 09:35:10;;;;;;;13.43;6.63;;;;;;;22.59;62.34;100510.19;4938302;29;20111;-59
2021/10/29 09:37:58;;;;;;;10.68;6.63;;;;;;;22.78;60.54;100510.28;4938035;29;20102;-60
2021/10/29 09:41:01;;;;;;;13.77;6.93;;;;;;;23.59;57.22;100497.22;4938126;29;20483;-60
2021/10/29 09:43:34;;;;;;;12.43;6.57;;;;;;;23.46;56.77;100494.09;4935708;29;20054;-58
2021/10/29 09:46:02;;;;;;;11.73;6.50;;;;;;;23.66;56.03;100488.66;4938026;29;20040;-59
2021/10/29 09:48:47;;;;;;;8.57;5.83;;;;;;;23.48;55.05;100494.63;4937584;29;20038;-60
2021/10/29 09:51:16;;;;;;;11.30;5.67;;;;;;;23.24;56.30;100513.66;4938145;29;20044;-60
2021/10/29 09:56:22;;;;;;;16.85;5.88;;;;;;;23.73;54.79;100502.75;4937968;29;20052;-59
2021/10/29 09:58:53;;;;;;;12.23;6.77;;;;;;;23.29;56.22;100508.19;4951269;29;20106;-59
2021/10/29 10:01:25;;;;;;;9.83;6.60;;;;;;;24.06;53.67;100513.84;4939746;29;20115;-58
2021/10/29 10:03:52;;;;;;;11.93;5.30;;;;;;;23.46;54.68;100505.00;4939992;29;20043;-58
2021/10/29 10:06:25;;;;;;;12.07;5.90;;;;;;;23.61;54.53;100505.91;4939711;29;20035;-59
2021/10/29 10:08:55;;;;;;;13.43;5.93;;;;;;;24.99;51.18;100517.88;4956920;29;20046;-60
2021/10/29 10:11:25;;;;;;;11.53;6.17;;;;;;;25.40;49.26;100508.06;4956910;29;20043;-60
2021/10/29 10:13:53;;;;;;;11.23;6.40;;;;;;;23.33;55.07;100508.41;4939871;29;20126;-59
2021/10/29 10:16:19;;;;;;;8.97;5.90;;;;;;;22.75;59.43;100510.84;4940786;29;20103;-60
2021/10/29 10:18:45;;;;;;;;;;;;;;;22.44;62.52;100492.00;4937862;29;20043;-59
2021/10/29 10:21:16;;;;;;;9.97;6.27;;;;;;;22.30;64.53;100501.91;4941118;29;19915;-60
2021/10/29 10:23:46;;;;;;;8.70;5.77;;;;;;;21.96;66.49;100489.06;4946098;29;20032;-60
2021/10/29 10:28:59;;;;;;;;;;;;;;;21.91;68.38;100484.44;4935982;29;20454;-60
2021/10/29 10:48:27;;;;;;;11.80;6.37;;;;;;;21.56;73.67;100469.88;4918354;29;20070;-58
2021/10/29 10:51:00;;;;;;;11.87;6.33;;;;;;;21.34;75.70;100466.44;4928558;29;20031;-58
2021/10/29 10:53:43;;;;;;;11.60;6.07;;;;;;;21.48;75.88;100460.41;4945202;29;20112;-58
2021/10/29 10:59:11;;;;;;;11.07;6.23;;;;;;;21.58;72.48;100448.69;4942984;29;20043;-59
2021/10/29 11:02:28;;;;;;;13.03;6.27;;;;;;;21.78;74.51;100443.13;4927906;29;20382;-60
2021/10/29 11:04:48;;;;;;;14.30;5.70;;;;;;;21.58;74.24;100440.50;4942789;29;20051;-60
2021/10/29 11:10:18;;;;;;;11.55;6.30;;;;;;;22.33;70.49;100422.34;4948036;29;20118;-59
2021/10/29 11:12:45;;;;;;;10.27;6.70;;;;;;;23.51;62.39;100416.78;4946914;29;20132;-60
2021/10/29 11:15:11;;;;;;;20.50;7.33;;;;;;;24.55;57.32;100418.78;4945451;29;20035;-59
2021/10/29 11:17:44;;;;;;;13.43;6.35;;;;;;;25.26;53.08;100425.97;4946725;28;20105;-58
2021/10/29 11:20:11;;;;;;;12.13;5.30;;;;;;;25.61;51.43;100415.41;4906775;29;20044;-59
2021/10/29 11:22:44;;;;;;;9.60;5.00;;;;;;;26.85;48.58;100399.84;4936388;29;20035;-59
2021/10/29 11:25:14;;;;;;;9.23;5.30;;;;;;;26.48;47.30;100399.97;4916348;29;20039;-60
2021/10/29 11:27:42;;;;;;;11.23;5.47;;;;;;;26.65;47.18;100391.00;4942156;29;20039;-59
2021/10/29 11:30:08;;;;;;;11.40;5.23;;;;;;;26.97;46.04;100386.31;4944876;29;20079;-60
2021/10/29 11:32:34;;;;;;;11.10;4.87;;;;;;;26.76;46.42;100389.63;4946011;29;20043;-58
2021/10/29 11:35:02;;;;;;;7.90;5.05;;;;;;;26.70;46.36;100381.84;4928631;29;20512;-58
2021/10/29 11:37:32;;;;;;;11.87;4.70;;;;;;;27.47;44.78;100367.88;4917764;29;20440;-58
2021/10/29 11:39:58;;;;;;;7.37;4.53;;;;;;;27.54;44.58;100379.19;4909802;29;20887;-57
2021/10/29 11:42:23;;;;;;;;;;;;;;;26.93;44.62;100390.81;4918076;29;20114;-58
2021/10/29 11:44:50;;;;;;;10.07;4.20;;;;;;;27.04;44.69;100375.69;4934233;29;19930;-57
2021/10/29 11:47:15;;;;;;;8.23;3.70;;;;;;;27.31;44.66;100373.81;4933993;29;20477;-58
2021/10/29 11:49:41;;;;;;;;;;;;;;;27.09;43.80;100382.16;4925438;29;20039;-59
2021/10/29 11:52:07;;;;;;;9.83;3.50;;;;;;;26.89;44.84;100362.41;4917001;29;19918;-60
2021/10/29 11:54:36;;;;;;;8.67;3.70;;;;;;;26.48;45.67;100364.31;4934445;29;20035;-59
2021/10/29 12:07:27;;;;;;;6.30;3.10;;;;;;;27.15;44.21;100348.75;4916823;29;20047;-58
2021/10/29 12:10:05;;;;;;;5.70;3.43;;;;;;;27.15;43.20;100364.41;4934117;29;20028;-58
2021/10/29 12:12:32;;;;;;;7.70;3.03;;;;;;;27.59;42.86;100367.25;4933349;29;20046;-58
2021/10/29 12:15:08;;;;;;;8.57;3.70;;;;;;;28.27;42.28;100333.72;4934031;29;20031;-56
2021/10/29 12:17:52;;;;;;;7.63;3.17;;;;;;;28.29;42.05;100339.69;4931921;29;20489;-59
2021/10/29 12:20:23;;;;;;;5.40;3.13;;;;;;;28.40;41.17;100334.66;4934265;29;20134;-58
2021/10/29 12:22:55;;;;;;;8.37;3.07;;;;;;;28.61;40.97;100328.44;4925056;29;20367;-58
2021/10/29 12:25:40;;;;;;;5.80;2.70;;;;;;;28.61;40.58;100334.72;4934039;29;20051;-59
2021/10/29 12:28:09;;;;;;;9.80;3.43;;;;;;;29.17;39.88;100327.47;4927289;29;20118;-57
2021/10/29 12:30:47;;;;;;;7.53;3.30;;;;;;;28.97;39.12;100316.09;4934053;29;20043;-58
2021/10/29 13:04:09;;;;;;;6.25;2.50;;;;;;;29.76;37.70;100267.88;4934186;29;20062;-57
2021/10/29 13:06:52;;;;;;;5.22;3.20;;;;;;;29.91;36.79;100282.94;4934422;29;20036;-56
2021/10/29 13:09:27;;;;;;;7.47;3.08;;;;;;;29.88;37.86;100273.41;4934263;29;20046;-57
2021/10/29 13:11:56;;;;;;;5.75;2.72;;;;;;;29.66;37.17;100271.84;4934891;29;20039;-58
2021/10/29 13:14:27;;;;;;;6.38;2.08;;;;;;;29.29;36.75;100272.47;4934171;29;20043;-58
2021/10/29 13:16:54;;;;;;;5.20;2.30;;;;;;;29.54;36.69;100275.38;4934354;29;20492;-58
2021/10/29 13:35:29;;;;;;;9.35;2.88;;;;;;;29.96;35.44;100252.41;4935814;29;20119;-58
2021/10/29 13:54:10;;;;;;;5.17;2.00;;;;;;;29.76;36.45;100265.91;4936321;29;20119;-57
2021/10/29 14:32:15;;;;;;;7.13;2.80;;;;;;;24.41;52.19;100260.25;4944475;29;20066;-58
2021/10/29 14:34:48;;;;;;;8.13;2.83;;;;;;;24.13;54.21;100268.44;4945365;29;20044;-57
2021/10/29 14:52:38;;;;;;;9.30;2.40;;;;;;;23.58;59.89;100269.91;4942097;29;20040;-58
2021/10/29 15:28:07;;;;;;;5.97;2.83;;;;;;;22.95;69.40;100271.84;4918113;29;20051;-58
2021/10/29 15:51:47;;;;;;;10.63;3.20;;;;;;;22.58;83.68;100285.09;4936048;29;20214;-58
2021/10/29 15:54:13;;;;;;;5.87;3.00;;;;;;;22.46;82.69;100285.53;4936458;29;20048;-58
2021/10/29 15:56:48;;;;;;;9.25;3.55;;;;;;;22.40;84.04;100286.66;4936018;29;20032;-58
2021/10/29 15:59:22;;;;;;;7.00;3.23;;;;;;;22.46;83.57;100303.72;4935898;29;20040;-57
2021/10/29 16:18:00;;;;;;;7.67;3.30;;;;;;;21.63;97.15;100320.75;4935540;29;20043;-58
2021/10/29 16:20:26;;;;;;;5.82;2.70;;;;;;;21.85;98.29;100314.91;4935514;29;20038;-59
2021/10/29 16:22:54;;;;;;;11.48;3.33;;;;;;;21.60;99.31;100300.38;4934426;29;20040;-58
2021/10/29 16:25:28;;;;;;;4.40;2.20;;;;;;;21.31;100.00;100279.34;4935871;29;20090;-58
2021/10/29 16:27:58;;;;;;;6.27;3.10;;;;;;;21.42;100.00;100303.75;4935430;29;20044;-57